createdAt,value
2018-08-28T00:01:17.762Z,1.65
2018-08-28T00:04:22.266Z,1.98
2018-08-28T00:07:26.698Z,2.42
2018-08-28T00:10:31.238Z,1.90
2018-08-28T00:13:35.829Z,2.00
2018-08-28T00:16:40.291Z,2.17
2018-08-28T00:19:44.817Z,2.20
2018-08-28T00:22:49.249Z,1.97
2018-08-28T00:25:53.704Z,2.20
2018-08-28T00:28:58.167Z,1.80
2018-08-28T00:32:02.584Z,1.97
2018-08-28T00:35:07.031Z,2.13
2018-08-28T00:38:11.479Z,2.10
2018-08-28T00:41:15.881Z,2.30
2018-08-28T00:44:20.331Z,2.10
2018-08-28T00:47:24.814Z,2.30
2018-08-28T00:50:29.260Z,1.83
2018-08-28T00:53:33.786Z,2.10
2018-08-28T00:56:38.260Z,2.37
2018-08-28T00:59:42.700Z,2.33
2018-08-28T01:02:47.359Z,3.07
2018-08-28T01:05:51.884Z,3.13
2018-08-28T01:08:56.306Z,3.00
2018-08-28T01:12:00.730Z,2.97
2018-08-28T01:15:05.490Z,3.00
2018-08-28T01:18:09.913Z,3.90
2018-08-28T01:21:14.358Z,3.13
2018-08-28T01:24:18.803Z,3.87
2018-08-28T01:27:23.360Z,3.67
2018-08-28T01:30:33.046Z,2.93
2018-08-28T01:33:37.502Z,3.90
2018-08-28T01:36:42.131Z,3.60
2018-08-28T01:39:46.566Z,3.73
2018-08-28T01:42:50.998Z,3.37
2018-08-28T01:45:55.741Z,3.70
2018-08-28T01:49:00.254Z,3.70
2018-08-28T01:52:04.654Z,3.43
2018-08-28T01:55:09.122Z,4.43
2018-08-28T01:58:13.534Z,3.73
2018-08-28T02:01:17.945Z,3.50
2018-08-28T02:04:22.370Z,4.00
2018-08-28T02:07:26.804Z,3.87
2018-08-28T02:10:31.332Z,3.77
2018-08-28T02:13:35.803Z,3.60
2018-08-28T02:16:40.280Z,3.50
2018-08-28T02:19:44.806Z,3.73
2018-08-28T02:22:49.237Z,3.77
2018-08-28T02:25:53.685Z,3.73
2018-08-28T02:28:58.085Z,4.13
2018-08-28T02:32:02.514Z,4.00
2018-08-28T02:35:07.015Z,4.97
2018-08-28T02:38:11.450Z,4.30
2018-08-28T02:41:15.890Z,4.43
2018-08-28T02:44:20.360Z,4.10
2018-08-28T02:47:24.924Z,4.90
2018-08-28T02:50:29.369Z,4.23
2018-08-28T02:53:33.874Z,4.70
2018-08-28T02:56:38.401Z,5.47
2018-08-28T02:59:42.823Z,4.60
2018-08-28T03:02:47.337Z,4.13
2018-08-28T03:05:51.772Z,5.50
2018-08-28T03:08:56.210Z,4.43
2018-08-28T03:12:00.662Z,4.00
2018-08-28T03:15:05.253Z,4.17
2018-08-28T03:18:09.762Z,4.67
2018-08-28T03:21:14.201Z,4.30
2018-08-28T03:24:18.658Z,4.67
2018-08-28T03:27:23.089Z,4.27
2018-08-28T03:30:27.535Z,4.43
2018-08-28T03:33:31.973Z,4.80
2018-08-28T03:36:36.412Z,4.70
2018-08-28T03:39:40.891Z,4.67
2018-08-28T03:42:45.365Z,4.40
2018-08-28T03:45:49.818Z,4.70
2018-08-28T03:48:54.247Z,4.47
2018-08-28T03:51:58.698Z,5.17
2018-08-28T03:55:03.147Z,5.47
2018-08-28T03:58:07.642Z,4.20
2018-08-28T04:01:12.084Z,4.47
2018-08-28T04:04:16.521Z,4.20
2018-08-28T04:07:20.967Z,4.97
2018-08-28T04:10:25.996Z,4.20
2018-08-28T04:13:30.438Z,4.60
2018-08-28T04:16:34.946Z,4.53
2018-08-28T04:19:39.374Z,4.40
2018-08-28T04:22:43.896Z,4.73
2018-08-28T04:25:48.334Z,4.30
2018-08-28T04:28:52.845Z,3.93
2018-08-28T04:31:57.294Z,4.73
2018-08-28T04:35:01.774Z,5.17
2018-08-28T04:38:06.254Z,4.50
2018-08-28T04:41:10.952Z,3.87
2018-08-28T04:44:15.439Z,4.47
2018-08-28T04:47:19.878Z,4.80
2018-08-28T04:50:24.318Z,4.40
2018-08-28T04:53:28.769Z,4.00
2018-08-28T04:56:33.203Z,4.50
2018-08-28T04:59:37.654Z,5.43
2018-08-28T05:02:42.098Z,4.60
2018-08-28T05:05:46.539Z,5.10
2018-08-28T05:08:50.982Z,5.53
2018-08-28T05:11:55.717Z,5.40
2018-08-28T05:15:00.634Z,5.10
2018-08-28T05:18:05.077Z,5.90
2018-08-28T05:21:09.518Z,5.23
2018-08-28T05:24:13.978Z,5.60
2018-08-28T05:27:18.479Z,5.90
2018-08-28T05:30:23.060Z,4.90
2018-08-28T05:33:27.567Z,4.53
2018-08-28T05:36:32.067Z,6.13
2018-08-28T05:39:36.502Z,5.17
2018-08-28T05:42:40.926Z,6.07
2018-08-28T05:45:45.371Z,6.13
2018-08-28T05:48:49.798Z,5.10
2018-08-28T05:51:54.378Z,6.80
2018-08-28T05:54:58.906Z,6.10
2018-08-28T05:58:03.422Z,6.60
2018-08-28T06:01:07.963Z,6.47
2018-08-28T06:04:12.398Z,6.47
2018-08-28T06:07:17.134Z,6.47
2018-08-28T06:10:21.680Z,6.97
2018-08-28T06:13:26.078Z,6.23
2018-08-28T06:16:30.537Z,5.57
2018-08-28T06:19:35.061Z,5.50
2018-08-28T06:22:39.479Z,7.07
2018-08-28T06:25:43.917Z,6.80
2018-08-28T06:28:48.418Z,6.20
2018-08-28T06:31:52.859Z,6.13
2018-08-28T06:34:57.357Z,6.00
2018-08-28T06:38:01.773Z,5.10
2018-08-28T06:41:06.247Z,4.80
2018-08-28T06:44:10.731Z,5.58
2018-08-28T06:47:15.174Z,4.20
2018-08-28T06:50:19.609Z,4.58
2018-08-28T06:53:24.114Z,4.62
2018-08-28T06:56:28.546Z,5.10
2018-08-28T06:59:33.002Z,4.92
2018-08-28T07:02:37.720Z,5.25
2018-08-28T07:05:42.187Z,5.83
2018-08-28T07:08:46.656Z,5.03
2018-08-28T07:11:51.181Z,5.17
2018-08-28T07:14:55.902Z,4.62
2018-08-28T07:18:00.433Z,5.42
2018-08-28T07:21:04.990Z,6.15
2018-08-28T07:24:09.482Z,6.30
2018-08-28T07:27:13.921Z,4.83
2018-08-28T07:30:18.334Z,5.37
2018-08-28T07:33:22.784Z,5.10
2018-08-28T07:36:27.325Z,5.75
2018-08-28T07:39:31.913Z,4.78
2018-08-28T07:42:36.355Z,4.50
2018-08-28T07:45:40.815Z,4.97
2018-08-28T07:48:45.233Z,4.92
2018-08-28T07:51:49.658Z,4.62
2018-08-28T07:54:54.077Z,4.85
2018-08-28T07:57:58.490Z,5.22
2018-08-28T08:01:02.955Z,4.70
2018-08-28T08:04:07.382Z,5.00
2018-08-28T08:07:11.871Z,4.95
2018-08-28T08:10:17.439Z,5.30
2018-08-28T08:13:21.854Z,5.87
2018-08-28T08:16:26.280Z,6.00
2018-08-28T08:19:30.968Z,5.90
2018-08-28T08:22:35.453Z,7.30
2018-08-28T08:25:40.520Z,6.75
2018-08-28T08:28:44.982Z,6.55
2018-08-28T08:31:49.430Z,6.70
2018-08-28T08:34:53.853Z,5.83
2018-08-28T08:37:58.296Z,6.30
2018-08-28T08:41:02.732Z,5.62
2018-08-28T08:44:07.238Z,5.83
2018-08-28T08:47:11.670Z,6.58
2018-08-28T08:50:16.090Z,5.28
2018-08-28T08:53:20.535Z,5.00
2018-08-28T08:56:24.934Z,4.78
2018-08-28T08:59:29.361Z,5.83
2018-08-28T09:02:33.790Z,5.80
2018-08-28T09:05:38.238Z,6.00
2018-08-28T09:08:42.675Z,5.87
2018-08-28T09:11:47.082Z,5.87
2018-08-28T09:14:51.510Z,5.70
2018-08-28T09:17:56.085Z,6.45
2018-08-28T09:21:01.527Z,5.62
2018-08-28T09:24:06.041Z,5.80
2018-08-28T09:27:10.525Z,6.40
2018-08-28T09:30:14.954Z,5.80
2018-08-28T09:33:19.411Z,6.30
2018-08-28T09:36:23.841Z,6.37
2018-08-28T09:39:28.286Z,6.10
2018-08-28T09:42:33.049Z,6.33
2018-08-28T09:45:37.554Z,6.05
2018-08-28T09:48:41.998Z,6.33
2018-08-28T09:51:46.455Z,6.42
2018-08-28T09:54:50.903Z,6.28
2018-08-28T09:57:55.346Z,6.03
2018-08-28T10:01:04.927Z,5.70
2018-08-28T10:04:09.366Z,6.95
2018-08-28T10:07:13.782Z,6.40
2018-08-28T10:10:18.294Z,6.60
2018-08-28T10:13:22.726Z,6.58
2018-08-28T10:16:27.206Z,6.15
2018-08-28T10:19:31.646Z,6.28
2018-08-28T10:22:36.145Z,5.72
2018-08-28T10:25:40.597Z,7.22
2018-08-28T10:28:45.046Z,6.83
2018-08-28T10:31:49.489Z,6.33
2018-08-28T10:34:54.153Z,6.95
2018-08-28T10:37:58.623Z,6.83
2018-08-28T10:41:03.061Z,6.65
2018-08-28T10:44:07.507Z,6.83
2018-08-28T10:47:11.969Z,7.50
2018-08-28T10:50:16.390Z,7.00
2018-08-28T10:53:20.814Z,7.42
2018-08-28T10:56:25.245Z,8.23
2018-08-28T10:59:29.685Z,7.10
2018-08-28T11:02:34.410Z,7.65
2018-08-28T11:05:38.857Z,7.35
2018-08-28T11:08:43.326Z,7.72
2018-08-28T11:11:47.723Z,8.08
2018-08-28T11:14:52.156Z,8.25
2018-08-28T11:17:56.582Z,8.23
2018-08-28T11:21:01.051Z,8.25
2018-08-28T11:24:05.486Z,8.65
2018-08-28T11:27:09.962Z,7.78
2018-08-28T11:30:14.416Z,7.95
2018-08-28T11:33:18.943Z,7.90
2018-08-28T11:36:23.474Z,8.18
2018-08-28T11:39:27.918Z,8.33
2018-08-28T11:42:32.358Z,8.20
2018-08-28T11:45:36.814Z,8.50
2018-08-28T11:48:41.294Z,9.30
2018-08-28T11:51:45.737Z,8.33
2018-08-28T11:54:50.175Z,8.73
2018-08-28T11:57:54.624Z,7.28
2018-08-28T12:00:59.123Z,8.18
2018-08-28T12:04:03.606Z,8.43
2018-08-28T12:07:08.435Z,8.50
2018-08-28T12:10:12.899Z,7.55
2018-08-28T12:13:17.373Z,9.00
2018-08-28T12:16:21.859Z,8.25
2018-08-28T12:19:26.295Z,7.72
2018-08-28T12:22:30.770Z,8.70
2018-08-28T12:25:35.202Z,7.72
2018-08-28T12:28:39.679Z,8.00
2018-08-28T12:31:44.135Z,8.88
2018-08-28T12:34:48.597Z,7.67
2018-08-28T12:37:53.065Z,7.67
2018-08-28T12:40:57.542Z,7.80
2018-08-28T12:44:02.141Z,8.25
2018-08-28T12:47:06.550Z,7.05
2018-08-28T12:50:11.795Z,8.40
2018-08-28T12:53:16.321Z,7.92
2018-08-28T12:56:20.849Z,8.23
2018-08-28T12:59:25.375Z,8.23
2018-08-28T13:02:29.931Z,7.53
2018-08-28T13:05:34.344Z,8.23
2018-08-28T13:08:38.866Z,7.42
2018-08-28T13:11:43.410Z,7.42
2018-08-28T13:14:47.985Z,8.05
2018-08-28T13:17:52.346Z,7.60
2018-08-28T13:20:56.850Z,7.35
2018-08-28T13:24:01.342Z,7.75
2018-08-28T13:27:05.855Z,7.67
2018-08-28T13:30:10.330Z,6.62
2018-08-28T13:33:14.825Z,7.20
2018-08-28T13:36:19.298Z,6.97
2018-08-28T13:39:23.751Z,7.53
2018-08-28T13:42:28.216Z,8.73
2018-08-28T13:45:32.642Z,7.42
2018-08-28T13:48:37.177Z,7.70
2018-08-28T13:51:41.636Z,7.75
2018-08-28T13:54:46.094Z,7.28
2018-08-28T13:57:50.555Z,8.60
2018-08-28T14:00:55.090Z,7.35
2018-08-28T14:03:59.597Z,7.40
2018-08-28T14:07:04.050Z,7.58
2018-08-28T14:10:08.631Z,7.05
2018-08-28T14:13:13.268Z,8.20
2018-08-28T14:16:17.551Z,7.65
2018-08-28T14:19:22.022Z,7.92
2018-08-28T14:22:26.507Z,6.87
2018-08-28T14:25:30.931Z,7.67
2018-08-28T14:28:35.390Z,6.92
2018-08-28T14:31:39.924Z,8.18
2018-08-28T14:34:44.505Z,8.15
2018-08-28T14:37:48.948Z,8.10
2018-08-28T14:40:53.435Z,7.45
2018-08-28T14:43:57.890Z,7.42
2018-08-28T14:47:02.450Z,8.13
2018-08-28T14:50:07.916Z,7.47
2018-08-28T14:53:12.674Z,7.55
2018-08-28T14:56:17.126Z,7.47
2018-08-28T14:59:21.601Z,7.17
2018-08-28T15:02:26.038Z,7.45
2018-08-28T15:05:30.487Z,7.20
2018-08-28T15:08:34.950Z,7.40
2018-08-28T15:11:39.476Z,6.75
2018-08-28T15:14:43.921Z,6.97
2018-08-28T15:17:48.397Z,7.15
2018-08-28T15:20:52.933Z,8.83
2018-08-28T15:23:57.381Z,9.23
2018-08-28T15:27:01.837Z,6.83
2018-08-28T15:30:06.330Z,7.10
2018-08-28T15:33:10.754Z,7.90
2018-08-28T15:36:15.267Z,7.67
2018-08-28T15:39:19.704Z,7.20
2018-08-28T15:42:24.147Z,7.90
2018-08-28T15:45:28.568Z,7.47
2018-08-28T15:48:32.974Z,7.85
2018-08-28T15:51:37.523Z,7.67
2018-08-28T15:54:41.938Z,7.72
2018-08-28T15:57:46.378Z,8.10
2018-08-28T16:00:50.827Z,7.35
2018-08-28T16:03:55.246Z,8.83
2018-08-28T16:06:59.707Z,7.05
2018-08-28T16:10:04.171Z,7.37
2018-08-28T16:13:08.579Z,7.80
2018-08-28T16:16:13.018Z,8.10
2018-08-28T16:19:17.455Z,8.43
2018-08-28T16:22:26.653Z,8.10
2018-08-28T16:25:31.350Z,7.33
2018-08-28T16:28:35.787Z,7.40
2018-08-28T16:31:40.305Z,7.80
2018-08-28T16:34:44.775Z,7.72
2018-08-28T16:37:49.225Z,8.20
2018-08-28T16:40:53.703Z,7.17
2018-08-28T16:43:58.131Z,6.53
2018-08-28T16:47:02.649Z,8.25
2018-08-28T16:50:07.268Z,7.47
2018-08-28T16:53:11.654Z,7.90
2018-08-28T16:56:16.217Z,7.60
2018-08-28T16:59:20.650Z,8.00
2018-08-28T17:02:25.110Z,7.22
2018-08-28T17:05:29.539Z,7.37
2018-08-28T17:08:34.010Z,7.85
2018-08-28T17:11:38.454Z,7.08
2018-08-28T17:14:42.958Z,8.35
2018-08-28T17:17:47.411Z,8.13
2018-08-28T17:20:51.845Z,8.28
2018-08-28T17:23:56.398Z,7.60
2018-08-28T17:27:00.874Z,7.30
2018-08-28T17:30:05.742Z,7.58
2018-08-28T17:33:10.228Z,8.63
2018-08-28T17:36:14.728Z,7.40
2018-08-28T17:39:19.180Z,8.05
2018-08-28T17:42:23.665Z,7.90
2018-08-28T17:45:28.062Z,7.28
2018-08-28T17:48:32.557Z,6.85
2018-08-28T17:51:37.028Z,7.10
2018-08-28T17:54:41.467Z,7.62
2018-08-28T17:57:46.051Z,7.37
2018-08-28T18:00:50.564Z,7.25
2018-08-28T18:03:55.158Z,7.22
2018-08-28T18:06:59.603Z,7.05
2018-08-28T18:10:04.089Z,6.92
2018-08-28T18:13:09.254Z,6.62
2018-08-28T18:16:13.743Z,6.42
2018-08-28T18:19:18.199Z,6.42
2018-08-28T18:22:22.668Z,7.50
2018-08-28T18:25:27.141Z,6.12
2018-08-28T18:28:31.746Z,6.67
2018-08-28T18:31:36.299Z,6.80
2018-08-28T18:34:40.847Z,6.17
2018-08-28T18:37:45.791Z,5.87
2018-08-28T18:40:50.493Z,6.58
2018-08-28T18:43:55.057Z,6.55
2018-08-28T18:46:59.519Z,6.22
2018-08-28T18:50:04.491Z,6.22
2018-08-28T18:53:08.986Z,6.42
2018-08-28T18:56:13.448Z,6.70
2018-08-28T18:59:17.885Z,6.85
2018-08-28T19:02:22.675Z,7.05
2018-08-28T19:05:27.143Z,6.22
2018-08-28T19:08:31.610Z,6.55
2018-08-28T19:11:36.083Z,6.33
2018-08-28T19:14:40.633Z,6.30
2018-08-28T19:17:45.023Z,7.33
2018-08-28T19:20:49.576Z,6.28
2018-08-28T19:23:54.093Z,6.58
2018-08-28T19:26:58.566Z,5.80
2018-08-28T19:30:03.037Z,6.35
2018-08-28T19:33:07.574Z,6.47
2018-08-28T19:36:12.060Z,6.58
2018-08-28T19:39:16.645Z,6.58
2018-08-28T19:42:21.193Z,7.30
2018-08-28T19:45:25.771Z,6.58
2018-08-28T19:48:30.229Z,7.37
2018-08-28T19:51:34.699Z,6.47
2018-08-28T19:54:39.178Z,6.45
2018-08-28T19:57:43.630Z,6.37
2018-08-28T20:00:48.173Z,7.42
2018-08-28T20:03:52.655Z,7.00
2018-08-28T20:06:57.117Z,7.35
2018-08-28T20:10:01.634Z,6.30
2018-08-28T20:13:06.212Z,7.08
2018-08-28T20:16:10.702Z,6.35
2018-08-28T20:19:15.253Z,7.20
2018-08-28T20:22:19.742Z,6.62
2018-08-28T20:25:26.088Z,7.15
2018-08-28T20:28:30.574Z,6.65
2018-08-28T20:31:35.035Z,7.20
2018-08-28T20:34:39.637Z,6.75
2018-08-28T20:37:44.080Z,6.67
2018-08-28T20:40:48.557Z,6.37
2018-08-28T20:43:53.061Z,6.37
2018-08-28T20:46:57.622Z,6.67
2018-08-28T20:50:02.081Z,6.85
2018-08-28T20:53:06.946Z,6.60
2018-08-28T20:56:11.467Z,7.20
2018-08-28T20:59:15.964Z,6.55
2018-08-28T21:02:20.423Z,6.97
2018-08-28T21:05:27.874Z,6.77
2018-08-28T21:08:32.301Z,6.80
2018-08-28T21:11:36.750Z,6.60
2018-08-28T21:14:41.219Z,6.78
2018-08-28T21:21:31.315Z,7.70
2018-08-28T21:24:35.762Z,7.10
2018-08-28T21:27:40.257Z,7.40
2018-08-28T21:30:44.690Z,6.80
2018-08-28T21:33:49.198Z,6.80
2018-08-28T21:36:53.690Z,6.97
2018-08-28T21:39:58.102Z,7.13
2018-08-28T21:43:02.615Z,7.53
2018-08-28T21:46:07.193Z,7.57
2018-08-28T21:49:11.989Z,7.20
2018-08-28T21:52:16.436Z,7.03
2018-08-28T21:55:20.870Z,8.57
2018-08-28T21:58:25.318Z,6.63
2018-08-28T22:01:29.783Z,7.40
2018-08-28T22:04:34.229Z,6.90
2018-08-28T22:07:41.704Z,7.67
2018-08-28T22:10:46.149Z,7.47
2018-08-28T22:13:50.638Z,7.43
2018-08-28T22:16:55.077Z,7.80
2018-08-28T22:19:59.561Z,7.07
2018-08-28T22:23:04.044Z,7.70
2018-08-28T22:26:08.473Z,7.37
2018-08-28T22:29:12.854Z,7.60
2018-08-28T22:32:17.321Z,7.20
2018-08-28T22:35:21.732Z,7.30
2018-08-28T22:38:26.165Z,7.37
2018-08-28T22:41:30.575Z,7.40
2018-08-28T22:44:34.981Z,7.60
2018-08-28T22:47:39.398Z,7.30
2018-08-28T22:50:43.787Z,8.57
2018-08-28T22:53:48.195Z,7.53
2018-08-28T22:56:52.606Z,7.83
2018-08-28T22:59:56.986Z,7.70
2018-08-28T23:03:01.462Z,7.73
2018-08-28T23:06:05.873Z,7.80
2018-08-28T23:09:10.282Z,7.57
2018-08-28T23:12:14.750Z,8.20
2018-08-28T23:15:19.182Z,8.17
2018-08-28T23:18:23.594Z,8.73
2018-08-28T23:21:28.006Z,7.87
2018-08-28T23:24:32.407Z,8.33
2018-08-28T23:27:36.822Z,8.53
2018-08-28T23:30:41.213Z,8.17
2018-08-28T23:33:45.687Z,7.80
2018-08-28T23:36:50.089Z,8.13
2018-08-28T23:39:54.498Z,8.80
2018-08-28T23:42:58.915Z,7.50
2018-08-28T23:46:03.328Z,7.93
2018-08-28T23:49:07.803Z,8.00
2018-08-28T23:52:12.319Z,7.73
2018-08-28T23:55:16.756Z,7.27
2018-08-28T23:58:21.161Z,7.03
